NCAR-RAP Real-Time Weather Data

Output produced by METARs form (23 January 2018  15:42 UTC)
found at http://weather.rap.ucar.edu/surface/
 
RJCC 231530Z 22013KT 9999 -SHSN FEW010 SCT040 M05/M08 Q0999
RJCC 231500Z 20008KT 9999 -SHSN FEW015 SCT040 M06/M10 Q0999
RJCC 231430Z 22009KT 9999 FEW015 M04/M10 Q0999
RJCC 231400Z 25009KT 9999 VCSH FEW015 SCT040 M04/M11 Q0999
RJCC 231330Z 24011KT 9999 FEW015 M03/M11 Q0999
RJCC 231300Z 23008KT 9999 VCSH FEW015 SCT045 M03/M10 Q0998
RJCC 231230Z 19006KT 9999 FEW015 SCT050 M03/M10 Q0998
RJCC 231200Z 22008KT 9999 FEW015 BKN160 M02/M09 Q0998
RJCC 231130Z 22012KT 9999 FEW015 SCT100 M02/M09 Q0997
RJCC 231100Z 23012KT 9999 FEW015 SCT150 M01/M09 Q0996
RJCC 231030Z 25014KT 9999 -SHSN FEW010 BKN150 M01/M08 Q0995
RJCC 231000Z 18010KT 9999 -SHSN FEW006 SCT012 BKN025 M01/M02 Q0994
RJCC 230948Z 17014KT 3500 -SHSN FEW006 SCT012 BKN020 FEW025CB M01/M02 Q0994 RMK 1ST006 3ST012 5CU020 1CB025 A2936 9999S CB 20KM NE MOV NE
RJCC 230941Z 17014KT 3200 R19R/P2000N R19L/P2000N -TSSN FEW006 BKN012 BKN020 FEW025CB M01/M02 Q0994 RMK 1ST006 5ST012 6CU020 1CB025 A2936 9999S FBL TS 15KM NE MOV NE P/RR
RJCC 230936Z 17014KT 1600 R19R/2000N R19L/2000N -TSSN FEW005 BKN006 BKN007 M01/M02 Q0994 RMK 1ST005 6ST006 7ST007 A2936 FBL TS OHD MOV NE P/RR
RJCC 230932Z 20017G28KT 0900 R19R/1200VP2000U R19L/1200VP2000U TSSNGS VV006 M01/M01 Q0994 RMK A2936 FBL TS OHD MOV NE P/RR SNOW PELLETS
RJCC 230930Z 21019G29KT 0800 R19R/1200VP2000U R19L/1000VP2000U TSSNGS VV006 M01/M01 Q0994
RJCC 230927Z 21022G32KT 0800 R19R/1200VP2000N R19L/1000VP2000U TSSNGS VV006 M01/M02 Q0994 RMK A2936 MOD TS OHD MOV NE P/RR SNOW PELLETS
RJCC 230925Z 21024KT 0800 R19R/1200VP2000D R19L/1000VP2000D TSSNGS VV006 M01/M02 Q0994 RMK A2935 MOD TS OHD MOV NE P/RR SNOW PELLETS
RJCC 230921Z 21025KT 0300 R19R/1400VP2000D R19L/1000VP2000D TSSNGS VV006 M01/M02 Q0994 RMK A2936 MOD TS OHD MOV NE P/RR SNOW PELLETS
RJCC 230915Z 20026KT 0900 R19R/P2000N R19L/P2000N TSSNGS FEW006 BKN007 00/M00 Q0994 RMK 1ST006 7ST007 A2937 P/RR MOD TS OHD MOV NE SNOW PELLETS
RJCC 230903Z 14019G29KT 2000 -TSSN FEW006 BKN007 BKN015 00/M01 Q0992 RMK 1ST006 5ST007 7ST015 A2931 FBL TS 5KM SW MOV NE
RJCC 230900Z 14020KT 2000 -TSSN FEW006 BKN007 BKN015 00/M01 Q0992 RMK 1ST006 5ST007 7ST015 A2931 4000W FBL TS 10KM SW MOV NE
RJCC 230835Z 14018G28KT 1800 -SHSN FEW007 BKN010 BKN020 00/M01 Q0992 RMK 1ST007 5ST010 6CU020 A2930
RJCC 230830Z 14018KT 1400 R19R/P2000N R19L/P2000N -SHSN FEW007 BKN010 BKN020 00/M02 Q0992
RJCC 230820Z 16016KT 1400 R19R/P2000N R19L/P2000N -SHSN FEW007 BKN010 BKN020 00/M02 Q0992 RMK 1ST007 5ST010 7CU020 A2931
RJCC 230811Z 15017KT 2300 -SHSN FEW010 SCT015 BKN035 01/M04 Q0992 RMK 1ST010 3ST015 6CU035 A2930
RJCC 230809Z 15018KT 3100 -SHSN FEW010 SCT015 BKN035 01/M04 Q0992 RMK 1ST010 3ST015 6CU035 A2930
RJCC 230807Z 15018KT 4900 -SHSN FEW010 SCT015 BKN035 01/M04 Q0992 RMK 1ST010 3ST015 6CU035 A2930
RJCC 230800Z 15018KT 9999 -SHSN FEW010 BKN035 BKN050 02/M04 Q0992 RMK 1ST010 5CU035 7CU050 A2929
RJCC 230732Z 13016G27KT 9999 -SHSN FEW015 SCT035 BKN050 02/M05 Q0991 RMK 1ST015 3CU035 7CU050 A2928
RJCC 230730Z 13018KT 9999 -SHSN FEW015 SCT035 BKN050 02/M05 Q0991 RMK 1ST015 3CU035 7CU050 A2927 MOD TURB OBS AT 0702Z OVER CHE BTN 6000FT AND 8000FT IN CMB E170
RJCC 230703Z 13016G26KT 9999 FEW015 SCT030 BKN050 02/M07 Q0991 RMK 1ST015 3CU030 7CU050 A2928
RJCC 230700Z 14015KT 9999 FEW015 SCT030 BKN050 02/M07 Q0991 RMK 1ST015 3CU030 7CU050 A2929
RJCC 230630Z 13016KT 9999 FEW015 SCT030 BKN050 02/M07 Q0992 RMK 1ST015 3CU030 6CU050 A2930
RJCC 230600Z 16016G26KT 130V200 9999 -SHSN FEW015 SCT035 BKN045 02/M06 Q0993 RMK 1ST015 3CU035 7CU045 A2932
RJCC 230530Z 18011KT 9999 FEW015 SCT050 BKN060 02/M05 Q0993 RMK 1ST015 3CU050 7CU060 A2932
RJCC 230500Z 14006KT 9999 FEW015 SCT050 BKN060 02/M05 Q0992 RMK 1ST015 3CU050 7CU060 A2931
RJCC 230430Z 14008KT 9999 FEW015 SCT060 BKN070 01/M06 Q0993 RMK 1ST015 3CU060 7AC070 A2933
RJCC 230400Z 16010KT 9999 FEW015 SCT060 BKN070 01/M07 Q0994 RMK 1ST015 3CU060 7AC070 A2935
RJCC 230330Z 15007KT 9999 FEW015 BKN070 01/M08 Q0995 RMK 1ST015 7AC070 A2938
RJCC 230300Z 16011KT 9999 FEW015 SCT060 BKN070 00/M08 Q0995 RMK 1ST015 3CU060 7AC070 A2940 P/FR
RJCC 230230Z 15011KT 9999 FEW015 BKN070 M01/M09 Q0997 RMK 1ST015 7AC070 A2944 P/FR
RJCC 230200Z 16008KT 9999 FEW015 BKN070 M01/M10 Q0998 RMK 1ST015 6AC070 A2949 P/FR
RJCC 230130Z 14006KT 9999 FEW015 BKN070 M02/M10 Q1000 RMK 1ST015 6AC070 A2953
RJCC 230100Z 16007KT 9999 FEW015 BKN070 M03/M10 Q1000 RMK 1ST015 7AC070 A2956
RJCC 230030Z 14005KT 9999 FEW015 BKN070 M03/M10 Q1001 RMK 1ST015 7AC070 A2958
RJCC 230000Z 15005KT 9999 FEW015 BKN070 M04/M11 Q1002 RMK 1ST015 7AC070 A2961
RJCC 222330Z 17009KT 9999 FEW015 BKN070 M05/M11 Q1002 RMK 1ST015 7AC070 A2961
RJCC 222300Z 18009KT 9999 FEW015 BKN070 M08/M11 Q1003 RMK 1ST015 7AC070 A2962
RJCC 222230Z 17004KT 9999 FEW015 BKN070 M09/M11 Q1003 RMK 1ST015 7AC070 A2964
RJCC 222200Z 10002KT 9999 FEW015 BKN070 M09/M11 Q1004 RMK 1ST015 7AC070 A2967
RJCC 222130Z 03002KT 9999 FEW020 BKN070 M09/M12 Q1005 RMK 1CU020 7AC070 A2969
RJCC 222100Z 36002KT 9999 FEW020 BKN070 M09/M12 Q1005 RMK 1CU020 7AC070 A2970
RJCC 222030Z 33003KT 9999 FEW020 SCT035 BKN070 M09/M12 Q1006 RMK 1CU020 3CU035 7AC070 A2972
RJCC 222000Z 01003KT 9999 FEW020 BKN030 M08/M12 Q1007 RMK 1CU020 7SC030 A2974
RJCC 221930Z 01004KT 340V050 9999 FEW020 BKN030 M08/M12 Q1008 RMK 1CU020 7SC030 A2977
RJCC 221900Z 01003KT 9999 FEW020 BKN030 M08/M12 Q1008 RMK 1CU020 7SC030 A2979
RJCC 221830Z 36005KT 9999 FEW015 BKN025 M08/M11 Q1009 RMK 1ST015 7SC025 A2982
RJCC 221800Z 11005KT 350V170 9999 FEW015 BKN025 M08/M11 Q1010 RMK 1ST015 7SC025 A2984
RJCC 221730Z 34006KT 9999 FEW020 BKN030 M08/M12 Q1011 RMK 1CU020 7SC030 A2985
RJCC 221700Z 36006KT 9999 FEW020 BKN030 M09/M12 Q1011 RMK 1CU020 7SC030 A2988
RJCC 221630Z 35006KT 9999 FEW020 BKN035 M08/M11 Q1012 RMK 1CU020 7SC035 A2990
RJCC 221600Z 35005KT 9999 FEW025 BKN035 M08/M11 Q1013 RMK 1CU025 7SC035 A2992
RJCC 221530Z 35006KT 9999 FEW030 BKN040 M08/M11 Q1013 RMK 1CU030 7SC040 A2993
RJCC 221500Z 34006KT 9999 FEW030 BKN040 M07/M12 Q1014 RMK 1CU030 7SC040 A2995
RJCC 221430Z 34006KT 9999 FEW030 BKN045 M08/M12 Q1015 RMK 1CU030 7SC045 A2998
RJCC 221400Z 35004KT 9999 FEW030 BKN045 M08/M11 Q1015 RMK 1CU030 7SC045 A3000
RJCC 221330Z 33005KT 9999 FEW030 BKN045 M07/M11 Q1016 RMK 1CU030 7SC045 A3001
RJCC 221300Z 32003KT 9999 FEW030 BKN045 M08/M12 Q1017 RMK 1CU030 7SC045 A3003
RJCC 221230Z 32004KT 9999 FEW030 BKN045 M08/M13 Q1017 RMK 1CU030 7SC045 A3004
RJCC 221200Z 32001KT 9999 FEW030 BKN050 BKN/// M09/M12 Q1017 RMK 1CU030 6SC050 A3006
RJCC 221130Z 02003KT 9999 FEW030 BKN060 BKN/// M09/M13 Q1018
RJCC 221100Z 00000KT 9999 FEW030 SCT070 BKN/// M09/M13 Q1018
RJCC 221030Z 13001KT 9999 FEW030 SCT070 BKN/// M09/M12 Q1019
RJCC 221000Z 11002KT 9999 FEW025 BKN/// M09/M13 Q1019
RJCC 220930Z VRB02KT 9999 FEW025 BKN/// M09/M14 Q1018
RJCC 220900Z 34002KT 9999 FEW030 SCT080 BKN/// M08/M13 Q1018
RJCC 220830Z 00000KT 9999 FEW030 BKN/// M07/M13 Q1018
RJCC 220800Z 08002KT 9999 FEW030 BKN/// M08/M13 Q1018 RMK 1CU030 A3008
RJCC 220730Z VRB01KT 9999 FEW030 BKN/// M06/M14 Q1018 RMK 1CU030 A3008
RJCC 220700Z 13002KT 9999 FEW030 SCT070 BKN/// M05/M13 Q1018
RJCC 220630Z VRB02KT 9999 FEW030 SCT060 BKN/// M05/M13 Q1019
RJCC 220600Z 15004KT 110V180 9999 FEW030 SCT060 BKN/// M05/M12 Q1019
RJCC 220530Z 18005KT 160V220 9999 FEW030 SCT040 BKN050 M04/M13 Q1019 RMK 1CU030 3CU040 7CU050 A3010
RJCC 220500Z 22005KT 190V260 9999 FEW030 SCT045 BKN080 M04/M14 Q1019 RMK 1CU030 3CU045 7AC080 A3010
RJCC 220430Z 21005KT 170V250 9999 FEW030 SCT045 BKN060 M04/M14 Q1019 RMK 1CU030 3CU045 7CU060 A3010
RJCC 220400Z 21004KT 170V250 9999 FEW030 SCT050 BKN060 M04/M14 Q1019 RMK 1CU030 4CU050 7CU060 A3010
RJCC 220330Z 20005KT 160V230 9999 FEW030 BKN050 M04/M15 Q1019 RMK 2CU030 6CU050 A3011
RJCC 220300Z 25006KT 200V270 9999 FEW025 SCT030 BKN050 M04/M15 Q1020 RMK 1CU025 3CU030 7CU050 A3012
RJCC 220230Z 23008KT 200V270 9999 FEW025 SCT030 BKN050 M04/M14 Q1020 RMK 1CU025 3CU030 7CU050 A3013
RJCC 220200Z 18006KT 9999 -SHSN FEW025 SCT040 BKN050 M05/M14 Q1020 RMK 1CU025 3CU040 6CU050 A3015
RJCC 220130Z 20008KT 9999 FEW025 SCT050 M05/M14 Q1021 RMK 1CU025 3CU050 A3015
RJCC 220100Z 22005KT 9999 FEW025 M06/M14 Q1020 RMK 1CU025 A3014
RJCC 220030Z 20005KT 9999 FEW020 M06/M14 Q1020 RMK 1CU020 A3014
RJCC 220000Z 20006KT 9999 FEW020 M06/M15 Q1021 RMK 1CU020 A3015
RJCC 212330Z 20007KT 9999 FEW020 M07/M15 Q1021 RMK 1CU020 A3016
RJCC 212300Z 21004KT 9999 FEW020 M08/M16 Q1021 RMK 1CU020 A3015
RJCC 212230Z 22004KT 9999 FEW020 M09/M16 Q1020 RMK 1CU020 A3014
RJCC 212200Z 19006KT 9999 FEW020 M09/M16 Q1020 RMK 1CU020 A3014
RJCC 212130Z 19007KT 9999 FEW020 M10/M16 Q1020 RMK 1CU020 A3013
RJCC 212100Z 17005KT 9999 FEW020 SCT050 M10/M16 Q1020 RMK 1CU020 4CU050 A3012
RJCC 212030Z 19004KT 9999 -SHSN FEW015 BKN040 M09/M14 Q1020 RMK 1ST015 5CU040 A3012
RJCC 212000Z 23003KT 9999 -SHSN FEW020 BKN040 M09/M15 Q1019 RMK 1CU020 5CU040 A3011
RJCC 211930Z 21008KT 9999 FEW020 SCT045 M10/M15 Q1019 RMK 1CU020 3CU045 A3011
RJCC 211900Z 21009KT 9999 FEW020 SCT045 M09/M15 Q1019 RMK 1CU020 3CU045 A3010
RJCC 211830Z 21007KT 9999 FEW020 SCT045 M10/M15 Q1019 RMK 1CU020 3CU045 A3010
RJCC 211800Z 21007KT 9999 -SHSN FEW020 SCT040 M10/M15 Q1019 RMK 1CU020 4CU040 A3010
RJCC 211730Z 21006KT 9999 -SHSN FEW020 SCT040 M11/M14 Q1019 RMK 1CU020 4CU040 A3010
RJCC 211700Z 20006KT 9999 -SHSN FEW020 SCT040 M11/M15 Q1019 RMK 1CU020 4CU040 A3010
RJCC 211630Z 21008KT 9999 FEW020 SCT040 M10/M15 Q1019 RMK 1CU020 3CU040 A3009
RJCC 211600Z 20004KT 9999 FEW020 SCT040 M10/M15 Q1018 RMK 1CU020 3CU040 A3009
RJCC 211530Z 21004KT 9999 FEW020 SCT040 M10/M15 Q1018 RMK 1CU020 4CU040 A3008
RJCC 211500Z 21006KT 9999 -SHSN FEW020 BKN050 M10/M15 Q1019 RMK 1CU020 6CU050 A3009
RJCC 211430Z 21009KT 9999 -SHSN FEW020 BKN050 M10/M14 Q1018 RMK 1CU020 5CU050 A3008
RJCC 211400Z 23010KT 9999 -SHSN FEW020 SCT040 M11/M15 Q1018 RMK 1CU020 3CU040 A3008
RJCC 211330Z 20006KT 9999 FEW020 M12/M15 Q1018 RMK 1CU020 A3006
RJCC 211300Z 20005KT 9999 FEW020 M12/M15 Q1017 RMK 1CU020 A3005
RJCC 211230Z 21006KT 9999 FEW020 M11/M14 Q1017 RMK 1CU020 A3005
RJCC 211200Z 20005KT 9999 FEW020 M12/M15 Q1017 RMK 1CU020 A3005
RJCC 211130Z VRB02KT 9999 FEW020 M11/M15 Q1017 RMK 1CU020 A3005
RJCC 211100Z VRB05KT 9999 FEW015 SCT060 M10/M16 Q1017 RMK 1ST015 3CU060 A3004
RJCC 211030Z 29008KT 260V320 9999 -SHSN FEW015 BKN060 M10/M16 Q1017 RMK 1ST015 6CU060 A3004
RJCC 211000Z 30011KT 250V320 9999 -SHSN FEW010 SCT020 BKN040 M09/M15 Q1016 RMK 1ST010 3CU020 7CU040 A3003
RJCC 210930Z 33011KT 9999 -SHSN FEW010 BKN035 M08/M14 Q1016 RMK 1ST010 6CU035 A3001
RJCC 210900Z 30008KT 9999 -SHSN FEW010 BKN020 M08/M14 Q1015 RMK 1ST010 5CU020 A3000
RJCC 210830Z 32008KT 9999 -SHSN FEW010 SCT020 M08/M12 Q1015 RMK 1ST010 4CU020 A2999
RJCC 210821Z 31009KT 5000 -SHSN FEW010 SCT020 BKN040 M08/M11 Q1015 RMK 1ST010 3CU020 6CU040 A2998
RJCC 210800Z 33012KT 4900 -SHSN FEW010 BKN035 M07/M13 Q1014 RMK 1ST010 6CU035 A2997 9999S
RJCC 210730Z 28009KT 9999 VCSH FEW020 BKN050 M07/M16 Q1014 RMK 1CU020 5CU050 A2995 SH W-NW
RJCC 210700Z 29010KT 9999 VCSH FEW020 SCT050 M06/M17 Q1013 RMK 1CU020 4CU050 A2994 SH NW
RJCC 210630Z 27012KT 9999 FEW020 SCT050 M06/M16 Q1013 RMK 1CU020 3CU050 A2993
RJCC 210600Z 27014KT 9999 FEW020 SCT050 M05/M16 Q1012 RMK 1CU020 3CU050 A2991
RJCC 210530Z 33007KT 280V350 9999 FEW020 SCT045 M04/M10 Q1012 RMK 1CU020 4CU045 A2990
RJCC 210500Z VRB04KT 9999 FEW020 SCT030 BKN045 M04/M11 Q1012 RMK 1CU020 3CU030 5CU045 A2989
RJCC 210430Z 36006KT 9999 FEW020 SCT050 M05/M10 Q1011 RMK 1CU020 4CU050 A2988
RJCC 210400Z 35010KT 9999 -SHSN FEW020 BKN030 BKN050 M05/M10 Q1012 RMK 1CU020 6CU030 7CU050 A2989